Dream Catcher — VJ5836 — position and weather

sailwx.info

Track history (hours):
 
Tides and Currents Weather Stations Pressure Air Temp Water Temp Dewpoint Dewpoint Depression Visibility Wind Speed Wind Dir Waves Ship Positions

Dream Catcher

Last reported at 2017-Oct-25 06:50 UTC. Time now 2017-Nov-20 12:18 UTC.
Position S 32°56' E 152°03'.
Warning: this ship's position is 26 days out of date.

Length 22 m.

Type: Pleasure craft. MMSI: 503007460.

Date/timePositionNaut miles runAvg speedWind from/ knotsBaromVisibWave heightAir tempDewpointWater temp
2017-Oct-25 06:50S 32°56' E 152°03'721.7
2017-Oct-25 06:30S 32°50' E 152°09'815.9
2017-Oct-25 06:00S 32°43' E 152°12'2 3.2
2017-Oct-25 05:30S 32°43' E 152°10'714.4
2017-Oct-25 04:59S 32°40' E 152°18'26610.4
2017-Oct-24 03:23S 28°23' E 153°38'922.0
2017-Oct-24 02:59S 28°14' E 153°37'1021.5
2017-Oct-24 02:30S 28°05' E 153°32'1216.3
2017-Oct-24 01:47S 27°55' E 153°25'2 8.6
2017-Oct-24 01:30S 27°53' E 153°25'2 4.3
2017-Oct-24 01:00S 27°52' E 153°23'2 0.9
2017-Oct-23 22:24S 27°52' E 153°20'2 5.2
2017-Oct-23 22:00S 27°51' E 153°23'1 2.6
2017-Oct-23 21:30S 27°51' E 153°24'4 8.4
2017-Oct-23 21:00S 27°47' E 153°25'2 4.5
2017-Oct-23 20:28S 27°45' E 153°26'0 0.0
2017-Oct-23 19:58S 27°45' E 153°26'0 0.0
2017-Oct-23 19:28S 27°45' E 153°26'0 0.1
2017-Oct-23 18:58S 27°45' E 153°26'0 0.0
2017-Oct-23 18:28S 27°45' E 153°26'0 0.0
2017-Oct-23 17:58S 27°45' E 153°26'0 0.0
2017-Oct-23 17:28S 27°45' E 153°26'0 0.0
2017-Oct-23 16:58S 27°45' E 153°26'0 0.0
2017-Oct-23 16:28S 27°45' E 153°26'0 0.0
2017-Oct-23 15:58S 27°45' E 153°26'0 0.0
2017-Oct-23 15:28S 27°45' E 153°26'0 0.0
2017-Oct-23 14:58S 27°45' E 153°26'0 0.0
2017-Oct-23 14:28S 27°45' E 153°26'0 0.0
2017-Oct-23 13:58S 27°45' E 153°26'0 0.0
2017-Oct-23 13:28S 27°45' E 153°26'0 0.1
2017-Oct-23 12:58S 27°45' E 153°26'0 0.1
2017-Oct-23 12:28S 27°45' E 153°26'0 0.0
2017-Oct-23 11:58S 27°45' E 153°26'0 0.1
2017-Oct-23 11:28S 27°45' E 153°26'0 0.0
2017-Oct-23 10:58S 27°45' E 153°26'0 0.0
2017-Oct-23 10:28S 27°45' E 153°26'0 0.0
2017-Oct-23 09:58S 27°45' E 153°26'0 0.0
2017-Oct-23 09:28S 27°45' E 153°26'0 0.0
2017-Oct-23 08:58S 27°45' E 153°26'0 0.1
2017-Oct-23 08:28S 27°45' E 153°26'0 0.0
2017-Oct-23 07:58S 27°45' E 153°26'0 0.0
2017-Oct-23 07:28S 27°45' E 153°26'0 0.0
2017-Oct-23 06:58S 27°45' E 153°26'0 0.0
2017-Oct-23 06:28S 27°45' E 153°26'0 0.0
2017-Oct-23 05:58S 27°45' E 153°26'0 0.0
2017-Oct-23 05:30S 27°45' E 153°26'3 6.4
2017-Oct-23 05:00S 27°47' E 153°24'3 6.4
2017-Oct-23 04:30S 27°45' E 153°21'4 8.7
2017-Oct-23 04:00S 27°40' E 153°22'4 7.1
2017-Oct-23 03:30S 27°37' E 153°19'  
Track history (hours):
 
Tides and Currents Weather Stations Pressure Air Temp Water Temp Dewpoint Dewpoint Depression Visibility Wind Speed Wind Dir Waves Ship Positions

Dream Catcher

Last reported at 2017-Oct-25 06:50 UTC. Time now 2017-Nov-20 12:18 UTC.
Position S 32°56' E 152°03'.
Warning: this ship's position is 26 days out of date.

Length 22 m.

Type: Pleasure craft. MMSI: 503007460.

Date/timePositionNaut miles runAvg speedWind from/ knotsBaromVisibWave heightAir tempDewpointWater temp
2017-Oct-25 06:50S 32°56' E 152°03'721.7
2017-Oct-25 06:30S 32°50' E 152°09'815.9
2017-Oct-25 06:00S 32°43' E 152°12'2 3.2
2017-Oct-25 05:30S 32°43' E 152°10'714.4
2017-Oct-25 04:59S 32°40' E 152°18'26610.4
2017-Oct-24 03:23S 28°23' E 153°38'922.0
2017-Oct-24 02:59S 28°14' E 153°37'1021.5
2017-Oct-24 02:30S 28°05' E 153°32'1216.3
2017-Oct-24 01:47S 27°55' E 153°25'2 8.6
2017-Oct-24 01:30S 27°53' E 153°25'2 4.3
2017-Oct-24 01:00S 27°52' E 153°23'2 0.9
2017-Oct-23 22:24S 27°52' E 153°20'2 5.2
2017-Oct-23 22:00S 27°51' E 153°23'1 2.6
2017-Oct-23 21:30S 27°51' E 153°24'4 8.4
2017-Oct-23 21:00S 27°47' E 153°25'2 4.5
2017-Oct-23 20:28S 27°45' E 153°26'0 0.0
2017-Oct-23 19:58S 27°45' E 153°26'0 0.0
2017-Oct-23 19:28S 27°45' E 153°26'0 0.1
2017-Oct-23 18:58S 27°45' E 153°26'0 0.0
2017-Oct-23 18:28S 27°45' E 153°26'0 0.0
2017-Oct-23 17:58S 27°45' E 153°26'0 0.0
2017-Oct-23 17:28S 27°45' E 153°26'0 0.0
2017-Oct-23 16:58S 27°45' E 153°26'0 0.0
2017-Oct-23 16:28S 27°45' E 153°26'0 0.0
2017-Oct-23 15:58S 27°45' E 153°26'0 0.0
2017-Oct-23 15:28S 27°45' E 153°26'0 0.0
2017-Oct-23 14:58S 27°45' E 153°26'0 0.0
2017-Oct-23 14:28S 27°45' E 153°26'0 0.0
2017-Oct-23 13:58S 27°45' E 153°26'0 0.0
2017-Oct-23 13:28S 27°45' E 153°26'0 0.1
2017-Oct-23 12:58S 27°45' E 153°26'0 0.1
2017-Oct-23 12:28S 27°45' E 153°26'0 0.0
2017-Oct-23 11:58S 27°45' E 153°26'0 0.1
2017-Oct-23 11:28S 27°45' E 153°26'0 0.0
2017-Oct-23 10:58S 27°45' E 153°26'0 0.0
2017-Oct-23 10:28S 27°45' E 153°26'0 0.0
2017-Oct-23 09:58S 27°45' E 153°26'0 0.0
2017-Oct-23 09:28S 27°45' E 153°26'0 0.0
2017-Oct-23 08:58S 27°45' E 153°26'0 0.1
2017-Oct-23 08:28S 27°45' E 153°26'0 0.0
2017-Oct-23 07:58S 27°45' E 153°26'0 0.0
2017-Oct-23 07:28S 27°45' E 153°26'0 0.0
2017-Oct-23 06:58S 27°45' E 153°26'0 0.0
2017-Oct-23 06:28S 27°45' E 153°26'0 0.0
2017-Oct-23 05:58S 27°45' E 153°26'0 0.0
2017-Oct-23 05:30S 27°45' E 153°26'3 6.4
2017-Oct-23 05:00S 27°47' E 153°24'3 6.4
2017-Oct-23 04:30S 27°45' E 153°21'4 8.7
2017-Oct-23 04:00S 27°40' E 153°22'4 7.1
2017-Oct-23 03:30S 27°37' E 153°19'  

Dump ship's entire track history